sensor_id;sensor_type;location;lat;lon;timestamp;pressure;altitude;pressure_sealevel;temperature;humidity
58239;BME280;44037;55.638;37.356;2023-04-24T00:01:53;99150.34;;;11.13;52.08
58239;BME280;44037;55.638;37.356;2023-04-24T00:04:20;99153.78;;;11.13;52.63
58239;BME280;44037;55.638;37.356;2023-04-24T00:06:51;99154.63;;;11.12;52.07
58239;BME280;44037;55.638;37.356;2023-04-24T00:09:20;99158.97;;;11.12;52.44
58239;BME280;44037;55.638;37.356;2023-04-24T00:11:47;99152.91;;;11.10;51.93
58239;BME280;44037;55.638;37.356;2023-04-24T00:14:14;99163.31;;;11.08;51.63
58239;BME280;44037;55.638;37.356;2023-04-24T00:16:41;99158.09;;;11.05;51.70
58239;BME280;44037;55.638;37.356;2023-04-24T00:19:10;99154.66;;;11.03;51.23
58239;BME280;44037;55.638;37.356;2023-04-24T00:21:38;99153.78;;;11.01;51.63
58239;BME280;44037;55.638;37.356;2023-04-24T00:24:05;99153.78;;;10.99;51.62
58239;BME280;44037;55.638;37.356;2023-04-24T00:26:34;99154.63;;;10.97;51.27
58239;BME280;44037;55.638;37.356;2023-04-24T00:29:02;99149.47;;;10.95;51.20
58239;BME280;44037;55.638;37.356;2023-04-24T00:31:29;99158.09;;;10.94;51.53
58239;BME280;44037;55.638;37.356;2023-04-24T00:33:56;99165.88;;;10.93;51.04
58239;BME280;44037;55.638;37.356;2023-04-24T00:36:24;99159.84;;;10.89;51.19
58239;BME280;44037;55.638;37.356;2023-04-24T00:38:52;99151.19;;;10.85;51.29
58239;BME280;44037;55.638;37.356;2023-04-24T00:41:19;99152.91;;;10.82;51.39
58239;BME280;44037;55.638;37.356;2023-04-24T00:43:47;99158.09;;;10.77;51.24
58239;BME280;44037;55.638;37.356;2023-04-24T00:46:16;99155.53;;;10.75;51.13
58239;BME280;44037;55.638;37.356;2023-04-24T00:48:43;99154.63;;;10.75;51.21
58239;BME280;44037;55.638;37.356;2023-04-24T00:51:11;99161.53;;;10.73;50.68
58239;BME280;44037;55.638;37.356;2023-04-24T00:53:39;99166.75;;;10.70;51.00
58239;BME280;44037;55.638;37.356;2023-04-24T00:56:06;99164.16;;;10.67;51.33
58239;BME280;44037;55.638;37.356;2023-04-24T00:58:33;99158.94;;;10.64;50.94
58239;BME280;44037;55.638;37.356;2023-04-24T01:01:02;99153.75;;;10.59;50.85
58239;BME280;44037;55.638;37.356;2023-04-24T01:03:33;99156.34;;;10.53;50.99
58239;BME280;44037;55.638;37.356;2023-04-24T01:06:03;99158.94;;;10.51;51.25
58239;BME280;44037;55.638;37.356;2023-04-24T01:08:31;99151.16;;;10.50;50.89
58239;BME280;44037;55.638;37.356;2023-04-24T01:11:03;99152.88;;;10.48;50.98
58239;BME280;44037;55.638;37.356;2023-04-24T01:13:31;99152.88;;;10.49;50.70
58239;BME280;44037;55.638;37.356;2023-04-24T01:15:58;99154.59;;;10.47;50.93
58239;BME280;44037;55.638;37.356;2023-04-24T01:18:27;99153.75;;;10.47;51.14
58239;BME280;44037;55.638;37.356;2023-04-24T01:20:57;99149.41;;;10.42;50.97
58239;BME280;44037;55.638;37.356;2023-04-24T01:23:26;99141.66;;;10.41;50.94
58239;BME280;44037;55.638;37.356;2023-04-24T01:25:54;99150.28;;;10.38;50.51
58239;BME280;44037;55.638;37.356;2023-04-24T01:28:22;99143.31;;;10.36;50.86
58239;BME280;44037;55.638;37.356;2023-04-24T01:30:49;99141.59;;;10.33;50.67
58239;BME280;44037;55.638;37.356;2023-04-24T01:33:17;99140.75;;;10.29;50.55
58239;BME280;44037;55.638;37.356;2023-04-24T01:35:44;99143.31;;;10.28;50.77
58239;BME280;44037;55.638;37.356;2023-04-24T01:38:12;99145.91;;;10.26;50.44
58239;BME280;44037;55.638;37.356;2023-04-24T01:40:41;99139.84;;;10.23;50.72
58239;BME280;44037;55.638;37.356;2023-04-24T01:43:08;99142.41;;;10.21;50.83
58239;BME280;44037;55.638;37.356;2023-04-24T01:45:35;99148.50;;;10.20;50.33
58239;BME280;44037;55.638;37.356;2023-04-24T01:48:02;99142.41;;;10.17;50.43
58239;BME280;44037;55.638;37.356;2023-04-24T01:50:30;99145.00;;;10.15;50.54
58239;BME280;44037;55.638;37.356;2023-04-24T01:52:57;99144.13;;;10.13;50.57
58239;BME280;44037;55.638;37.356;2023-04-24T01:55:24;99140.69;;;10.11;50.72
58239;BME280;44037;55.638;37.356;2023-04-24T01:57:55;99141.53;;;10.10;50.60
58239;BME280;44037;55.638;37.356;2023-04-24T02:00:23;99139.81;;;10.07;50.24
58239;BME280;44037;55.638;37.356;2023-04-24T02:02:50;99140.66;;;10.05;50.52
58239;BME280;44037;55.638;37.356;2023-04-24T02:05:18;99143.22;;;10.03;50.64
58239;BME280;44037;55.638;37.356;2023-04-24T02:07:45;99144.97;;;10.01;50.43
58239;BME280;44037;55.638;37.356;2023-04-24T02:10:12;99144.94;;;9.99;50.50
58239;BME280;44037;55.638;37.356;2023-04-24T02:12:39;99147.53;;;9.99;50.75
58239;BME280;44037;55.638;37.356;2023-04-24T02:15:09;99145.81;;;10.02;50.66
58239;BME280;44037;55.638;37.356;2023-04-24T02:17:38;99150.16;;;10.06;50.59
58239;BME280;44037;55.638;37.356;2023-04-24T02:20:06;99142.38;;;10.09;50.53
58239;BME280;44037;55.638;37.356;2023-04-24T02:22:34;99139.84;;;10.15;50.89
58239;BME280;44037;55.638;37.356;2023-04-24T02:25:02;99142.44;;;10.18;50.67
58239;BME280;44037;55.638;37.356;2023-04-24T02:27:33;99146.75;;;10.25;50.42
58239;BME280;44037;55.638;37.356;2023-04-24T02:30:00;99143.31;;;10.31;50.37
58239;BME280;44037;55.638;37.356;2023-04-24T02:32:33;99142.53;;;10.38;49.80
58239;BME280;44037;55.638;37.356;2023-04-24T02:35:01;99137.31;;;10.46;49.77
58239;BME280;44037;55.638;37.356;2023-04-24T02:37:29;99143.38;;;10.53;49.75
58239;BME280;44037;55.638;37.356;2023-04-24T02:39:57;99152.91;;;10.63;49.79
58239;BME280;44037;55.638;37.356;2023-04-24T02:42:24;99146.88;;;10.70;49.68
58239;BME280;44037;55.638;37.356;2023-04-24T02:44:51;99149.47;;;10.81;49.50
58239;BME280;44037;55.638;37.356;2023-04-24T02:47:18;99150.31;;;10.91;49.66
58239;BME280;44037;55.638;37.356;2023-04-24T02:49:47;99152.94;;;11.00;49.41
58239;BME280;44037;55.638;37.356;2023-04-24T02:52:14;99158.13;;;11.08;49.26
58239;BME280;44037;55.638;37.356;2023-04-24T02:54:42;99153.78;;;11.12;49.27
58239;BME280;44037;55.638;37.356;2023-04-24T02:57:09;99155.50;;;11.14;48.64
58239;BME280;44037;55.638;37.356;2023-04-24T02:59:36;99160.69;;;11.17;48.02
58239;BME280;44037;55.638;37.356;2023-04-24T03:02:04;99159.81;;;11.18;48.04
58239;BME280;44037;55.638;37.356;2023-04-24T03:04:31;99167.59;;;11.21;47.96
58239;BME280;44037;55.638;37.356;2023-04-24T03:07:00;99162.41;;;11.23;48.15
58239;BME280;44037;55.638;37.356;2023-04-24T03:09:27;99164.16;;;11.27;48.50
58239;BME280;44037;55.638;37.356;2023-04-24T03:11:54;99170.19;;;11.31;48.28
58239;BME280;44037;55.638;37.356;2023-04-24T03:14:22;99166.69;;;11.35;47.81
58239;BME280;44037;55.638;37.356;2023-04-24T03:16:49;99160.66;;;11.37;47.99
58239;BME280;44037;55.638;37.356;2023-04-24T03:19:16;99165.84;;;11.42;48.21
58239;BME280;44037;55.638;37.356;2023-04-24T03:21:44;99169.28;;;11.47;47.46
58239;BME280;44037;55.638;37.356;2023-04-24T03:24:12;99171.88;;;11.53;47.52
58239;BME280;44037;55.638;37.356;2023-04-24T03:26:39;99169.25;;;11.60;47.56
58239;BME280;44037;55.638;37.356;2023-04-24T03:29:07;99174.44;;;11.66;47.83
58239;BME280;44037;55.638;37.356;2023-04-24T03:31:34;99169.22;;;11.71;47.56
58239;BME280;44037;55.638;37.356;2023-04-24T03:34:01;99170.94;;;11.76;47.15
58239;BME280;44037;55.638;37.356;2023-04-24T03:36:28;99176.09;;;11.84;46.76
58239;BME280;44037;55.638;37.356;2023-04-24T03:38:56;99170.00;;;11.91;47.24
58239;BME280;44037;55.638;37.356;2023-04-24T03:41:24;99172.59;;;12.04;46.98
58239;BME280;44037;55.638;37.356;2023-04-24T03:43:51;99169.94;;;12.18;46.50
58239;BME280;44037;55.638;37.356;2023-04-24T03:46:19;99182.00;;;12.31;45.75
58239;BME280;44037;55.638;37.356;2023-04-24T03:48:46;99180.19;;;12.42;45.36
58239;BME280;44037;55.638;37.356;2023-04-24T03:51:13;99175.78;;;12.55;45.49
58239;BME280;44037;55.638;37.356;2023-04-24T03:53:40;99181.78;;;12.68;45.11
58239;BME280;44037;55.638;37.356;2023-04-24T03:56:07;99175.63;;;12.80;45.08
58239;BME280;44037;55.638;37.356;2023-04-24T03:58:36;99176.38;;;12.96;45.16
58239;BME280;44037;55.638;37.356;2023-04-24T04:01:03;99173.63;;;13.12;44.93
58239;BME280;44037;55.638;37.356;2023-04-24T04:03:31;99179.56;;;13.29;44.53
58239;BME280;44037;55.638;37.356;2023-04-24T04:05:58;99185.53;;;13.44;44.23
58239;BME280;44037;55.638;37.356;2023-04-24T04:08:25;99182.78;;;13.58;43.95
58239;BME280;44037;55.638;37.356;2023-04-24T04:10:52;99178.31;;;13.71;43.63
58239;BME280;44037;55.638;37.356;2023-04-24T04:13:20;99185.94;;;13.86;43.37
58239;BME280;44037;55.638;37.356;2023-04-24T04:15:49;99184.06;;;13.99;42.78
58239;BME280;44037;55.638;37.356;2023-04-24T04:18:16;99181.25;;;14.13;42.78
58239;BME280;44037;55.638;37.356;2023-04-24T04:20:43;99181.09;;;14.25;42.21
58239;BME280;44037;55.638;37.356;2023-04-24T04:23:10;99186.19;;;14.36;41.47
58239;BME280;44037;55.638;37.356;2023-04-24T04:25:37;99181.75;;;14.43;41.37
58239;BME280;44037;55.638;37.356;2023-04-24T04:28:05;99187.75;;;14.50;40.96
58239;BME280;44037;55.638;37.356;2023-04-24T04:30:32;99189.41;;;14.55;41.20
58239;BME280;44037;55.638;37.356;2023-04-24T04:33:00;99185.84;;;14.61;40.93
58239;BME280;44037;55.638;37.356;2023-04-24T04:35:28;99190.09;;;14.70;41.04
58239;BME280;44037;55.638;37.356;2023-04-24T04:37:55;99184.72;;;14.79;40.74
58239;BME280;44037;55.638;37.356;2023-04-24T04:40:24;99188.03;;;14.92;40.33
58239;BME280;44037;55.638;37.356;2023-04-24T04:42:52;99187.84;;;15.03;40.44
58239;BME280;44037;55.638;37.356;2023-04-24T04:45:19;99191.13;;;15.14;40.21
58239;BME280;44037;55.638;37.356;2023-04-24T04:47:47;99190.03;;;15.28;39.92
58239;BME280;44037;55.638;37.356;2023-04-24T04:50:16;99193.31;;;15.41;39.67
58239;BME280;44037;55.638;37.356;2023-04-24T04:52:45;99191.31;;;15.55;39.46
58239;BME280;44037;55.638;37.356;2023-04-24T04:55:12;99193.69;;;15.66;39.22
58239;BME280;44037;55.638;37.356;2023-04-24T04:57:40;99198.69;;;15.78;38.94
58239;BME280;44037;55.638;37.356;2023-04-24T05:00:08;99193.25;;;15.91;38.75
58239;BME280;44037;55.638;37.356;2023-04-24T05:02:37;99194.72;;;16.04;38.49
58239;BME280;44037;55.638;37.356;2023-04-24T05:05:05;99199.69;;;16.18;38.17
58239;BME280;44037;55.638;37.356;2023-04-24T05:07:34;99190.72;;;16.30;37.93
58239;BME280;44037;55.638;37.356;2023-04-24T05:10:02;99198.28;;;16.42;37.51
58239;BME280;44037;55.638;37.356;2023-04-24T05:12:30;99193.69;;;16.54;37.36
58239;BME280;44037;55.638;37.356;2023-04-24T05:14:57;99193.41;;;16.66;36.71
58239;BME280;44037;55.638;37.356;2023-04-24T05:17:24;99193.16;;;16.77;36.58
58239;BME280;44037;55.638;37.356;2023-04-24T05:19:51;99189.47;;;16.86;36.16
58239;BME280;44037;55.638;37.356;2023-04-24T05:22:19;99191.91;;;16.95;36.39
58239;BME280;44037;55.638;37.356;2023-04-24T05:24:48;99196.06;;;17.02;35.87
58239;BME280;44037;55.638;37.356;2023-04-24T05:27:15;99197.66;;;17.10;35.76
58239;BME280;44037;55.638;37.356;2023-04-24T05:29:42;99187.84;;;17.18;35.69
58239;BME280;44037;55.638;37.356;2023-04-24T05:32:09;99188.53;;;17.26;35.23
58239;BME280;44037;55.638;37.356;2023-04-24T05:34:36;99192.66;;;17.35;35.50
58239;BME280;44037;55.638;37.356;2023-04-24T05:37:04;99187.19;;;17.44;34.95
58239;BME280;44037;55.638;37.356;2023-04-24T05:39:33;99190.47;;;17.53;35.13
58239;BME280;44037;55.638;37.356;2023-04-24T05:42:03;99188.47;;;17.61;34.78
58239;BME280;44037;55.638;37.356;2023-04-24T05:44:30;99182.22;;;17.66;34.69
58239;BME280;44037;55.638;37.356;2023-04-24T05:46:57;99183.81;;;17.72;34.79
58239;BME280;44037;55.638;37.356;2023-04-24T05:49:25;99181.94;;;17.77;34.71
58239;BME280;44037;55.638;37.356;2023-04-24T05:51:52;99184.28;;;17.87;34.59
58239;BME280;44037;55.638;37.356;2023-04-24T05:54:19;99184.06;;;17.94;34.56
58239;BME280;44037;55.638;37.356;2023-04-24T05:56:46;99183.06;;;18.00;34.14
58239;BME280;44037;55.638;37.356;2023-04-24T05:59:15;99181.13;;;18.07;34.00
58239;BME280;44037;55.638;37.356;2023-04-24T06:01:42;99182.69;;;18.14;34.05
58239;BME280;44037;55.638;37.356;2023-04-24T06:04:10;99185.06;;;18.22;34.17
58239;BME280;44037;55.638;37.356;2023-04-24T06:06:39;99185.72;;;18.29;33.74
58239;BME280;44037;55.638;37.356;2023-04-24T06:09:06;99183.75;;;18.37;33.99
58239;BME280;44037;55.638;37.356;2023-04-24T06:11:33;99182.63;;;18.46;34.10
58239;BME280;44037;55.638;37.356;2023-04-24T06:14:01;99178.00;;;18.54;33.95
58239;BME280;44037;55.638;37.356;2023-04-24T06:16:29;99177.94;;;18.55;33.63
58239;BME280;44037;55.638;37.356;2023-04-24T06:18:57;99183.38;;;18.49;34.48
58239;BME280;44037;55.638;37.356;2023-04-24T06:21:25;99193.97;;;18.46;34.05
58239;BME280;44037;55.638;37.356;2023-04-24T06:23:53;99190.44;;;18.47;33.97
58239;BME280;44037;55.638;37.356;2023-04-24T06:26:21;99182.25;;;18.58;34.35
58239;BME280;44037;55.638;37.356;2023-04-24T06:28:50;99188.88;;;18.70;33.77
58239;BME280;44037;55.638;37.356;2023-04-24T06:31:19;99182.38;;;18.82;33.92
58239;BME280;44037;55.638;37.356;2023-04-24T06:33:48;99187.25;;;18.93;33.89
58239;BME280;44037;55.638;37.356;2023-04-24T06:36:15;99184.28;;;19.05;33.49
58239;BME280;44037;55.638;37.356;2023-04-24T06:38:43;99184.75;;;19.16;33.49
58239;BME280;44037;55.638;37.356;2023-04-24T06:41:10;99192.28;;;19.27;33.01
58239;BME280;44037;55.638;37.356;2023-04-24T06:43:38;99186.72;;;19.37;33.01
58239;BME280;44037;55.638;37.356;2023-04-24T06:46:05;99185.66;;;19.42;32.90
58239;BME280;44037;55.638;37.356;2023-04-24T06:48:33;99180.19;;;19.48;32.48
58239;BME280;44037;55.638;37.356;2023-04-24T06:51:01;99187.91;;;19.53;32.38
58239;BME280;44037;55.638;37.356;2023-04-24T06:53:28;99189.72;;;19.51;33.03
58239;BME280;44037;55.638;37.356;2023-04-24T06:55:56;99186.09;;;19.55;32.65
58239;BME280;44037;55.638;37.356;2023-04-24T06:58:24;99184.16;;;19.60;32.06
58239;BME280;44037;55.638;37.356;2023-04-24T07:00:51;99185.84;;;19.63;31.18
58239;BME280;44037;55.638;37.356;2023-04-24T07:03:18;99191.19;;;19.60;30.95
58239;BME280;44037;55.638;37.356;2023-04-24T07:05:46;99194.63;;;19.62;31.44
58239;BME280;44037;55.638;37.356;2023-04-24T07:08:14;99194.38;;;19.68;30.84
58239;BME280;44037;55.638;37.356;2023-04-24T07:10:42;99189.13;;;19.68;30.67
58239;BME280;44037;55.638;37.356;2023-04-24T07:13:10;99184.78;;;19.67;30.72
58239;BME280;44037;55.638;37.356;2023-04-24T07:15:37;99191.75;;;19.68;30.85
58239;BME280;44037;55.638;37.356;2023-04-24T07:18:06;99190.81;;;19.71;30.73
58239;BME280;44037;55.638;37.356;2023-04-24T07:20:34;99189.13;;;19.68;29.82
58239;BME280;44037;55.638;37.356;2023-04-24T07:23:02;99185.69;;;19.66;30.49
58239;BME280;44037;55.638;37.356;2023-04-24T07:25:30;99192.19;;;19.81;30.40
58239;BME280;44037;55.638;37.356;2023-04-24T07:27:58;99188.19;;;19.96;30.21
58239;BME280;44037;55.638;37.356;2023-04-24T07:30:25;99195.41;;;20.15;30.18
58239;BME280;44037;55.638;37.356;2023-04-24T07:32:54;99194.78;;;20.30;30.29
58239;BME280;44037;55.638;37.356;2023-04-24T07:35:21;99189.03;;;20.44;29.51
58239;BME280;44037;55.638;37.356;2023-04-24T07:37:55;99185.91;;;20.56;29.51
58239;BME280;44037;55.638;37.356;2023-04-24T07:40:23;99177.66;;;20.66;29.03
58239;BME280;44037;55.638;37.356;2023-04-24T07:42:51;99179.00;;;20.76;29.11
58239;BME280;44037;55.638;37.356;2023-04-24T07:45:19;99180.34;;;20.86;28.11
58239;BME280;44037;55.638;37.356;2023-04-24T07:47:46;99176.50;;;20.95;27.74
58239;BME280;44037;55.638;37.356;2023-04-24T07:50:13;99162.03;;;21.06;27.41
58239;BME280;44037;55.638;37.356;2023-04-24T07:52:40;99170.59;;;21.11;26.87
58239;BME280;44037;55.638;37.356;2023-04-24T07:55:07;99170.72;;;21.08;26.02
58239;BME280;44037;55.638;37.356;2023-04-24T07:57:34;99168.47;;;21.19;25.35
58239;BME280;44037;55.638;37.356;2023-04-24T08:00:05;99171.69;;;21.27;25.15
58239;BME280;44037;55.638;37.356;2023-04-24T08:02:33;99179.19;;;21.37;25.49
58239;BME280;44037;55.638;37.356;2023-04-24T08:05:00;99173.09;;;21.55;25.79
58239;BME280;44037;55.638;37.356;2023-04-24T08:07:30;99164.00;;;21.83;24.29
58239;BME280;44037;55.638;37.356;2023-04-24T08:09:57;99155.63;;;22.13;23.57
58239;BME280;44037;55.638;37.356;2023-04-24T08:12:25;99163.19;;;22.40;23.34
58239;BME280;44037;55.638;37.356;2023-04-24T08:14:52;99162.81;;;22.67;24.18
58239;BME280;44037;55.638;37.356;2023-04-24T08:17:21;99160.22;;;23.02;24.32
58239;BME280;44037;55.638;37.356;2023-04-24T08:19:48;99149.81;;;23.34;22.53
58239;BME280;44037;55.638;37.356;2023-04-24T08:22:16;99138.31;;;23.53;23.10
58239;BME280;44037;55.638;37.356;2023-04-24T08:24:43;99138.25;;;23.70;22.63
58239;BME280;44037;55.638;37.356;2023-04-24T08:27:11;99134.38;;;23.93;22.09
58239;BME280;44037;55.638;37.356;2023-04-24T08:29:38;99141.44;;;24.11;21.71
58239;BME280;44037;55.638;37.356;2023-04-24T08:32:05;99147.66;;;24.10;22.34
58239;BME280;44037;55.638;37.356;2023-04-24T08:34:34;99143.03;;;24.13;22.00
58239;BME280;44037;55.638;37.356;2023-04-24T08:37:01;99146.97;;;24.22;22.27
58239;BME280;44037;55.638;37.356;2023-04-24T08:39:29;99139.47;;;24.14;21.42
58239;BME280;44037;55.638;37.356;2023-04-24T08:41:56;99135.09;;;23.97;22.03
58239;BME280;44037;55.638;37.356;2023-04-24T08:44:23;99144.53;;;23.85;21.60
58239;BME280;44037;55.638;37.356;2023-04-24T08:46:50;99139.19;;;23.69;21.59
58239;BME280;44037;55.638;37.356;2023-04-24T08:49:19;99138.47;;;23.50;21.43
58239;BME280;44037;55.638;37.356;2023-04-24T08:51:49;99136.16;;;23.26;22.12
58239;BME280;44037;55.638;37.356;2023-04-24T08:54:17;99131.94;;;23.04;21.97
58239;BME280;44037;55.638;37.356;2023-04-24T08:56:48;99124.69;;;22.90;22.84
58239;BME280;44037;55.638;37.356;2023-04-24T08:59:15;99126.97;;;22.80;23.05
58239;BME280;44037;55.638;37.356;2023-04-24T09:01:44;99122.63;;;22.79;23.26
58239;BME280;44037;55.638;37.356;2023-04-24T09:04:12;99133.09;;;22.81;23.01
58239;BME280;44037;55.638;37.356;2023-04-24T09:06:42;99127.91;;;22.79;22.46
58239;BME280;44037;55.638;37.356;2023-04-24T09:09:11;99126.19;;;22.78;22.95
58239;BME280;44037;55.638;37.356;2023-04-24T09:11:38;99122.53;;;22.81;22.42
58239;BME280;44037;55.638;37.356;2023-04-24T09:14:06;99117.94;;;22.84;21.94
58239;BME280;44037;55.638;37.356;2023-04-24T09:16:35;99121.06;;;22.75;22.51
58239;BME280;44037;55.638;37.356;2023-04-24T09:19:03;99098.34;;;22.71;23.21
58239;BME280;44037;55.638;37.356;2023-04-24T09:21:32;99116.22;;;22.66;22.23
58239;BME280;44037;55.638;37.356;2023-04-24T09:24:00;99114.19;;;22.53;22.29
58239;BME280;44037;55.638;37.356;2023-04-24T09:26:31;99113.41;;;22.32;22.05
58239;BME280;44037;55.638;37.356;2023-04-24T09:28:59;99110.22;;;22.06;21.75
58239;BME280;44037;55.638;37.356;2023-04-24T09:31:27;99105.94;;;21.85;22.35
58239;BME280;44037;55.638;37.356;2023-04-24T09:33:56;99106.00;;;21.83;22.94
58239;BME280;44037;55.638;37.356;2023-04-24T09:36:27;99105.03;;;21.86;23.47
58239;BME280;44037;55.638;37.356;2023-04-24T09:38:57;99104.28;;;22.01;23.51
58239;BME280;44037;55.638;37.356;2023-04-24T09:41:25;99106.66;;;22.07;23.08
58239;BME280;44037;55.638;37.356;2023-04-24T09:43:55;99099.09;;;22.19;22.77
58239;BME280;44037;55.638;37.356;2023-04-24T09:46:30;99096.56;;;22.35;23.07
58239;BME280;44037;55.638;37.356;2023-04-24T09:49:08;99087.16;;;22.48;22.99
58239;BME280;44037;55.638;37.356;2023-04-24T09:51:37;99092.69;;;22.61;22.57
58239;BME280;44037;55.638;37.356;2023-04-24T09:54:13;99084.47;;;22.67;22.44
58239;BME280;44037;55.638;37.356;2023-04-24T09:56:42;99089.84;;;22.66;23.23
58239;BME280;44037;55.638;37.356;2023-04-24T09:59:13;99083.31;;;22.55;22.03
58239;BME280;44037;55.638;37.356;2023-04-24T10:01:40;99083.16;;;22.39;22.16
58239;BME280;44037;55.638;37.356;2023-04-24T10:04:18;99078.69;;;22.22;22.84
58239;BME280;44037;55.638;37.356;2023-04-24T10:06:46;99078.44;;;22.09;22.15
58239;BME280;44037;55.638;37.356;2023-04-24T10:09:14;99085.34;;;21.93;22.08
58239;BME280;44037;55.638;37.356;2023-04-24T10:11:43;99085.03;;;21.80;22.02
58239;BME280;44037;55.638;37.356;2023-04-24T10:14:15;99079.94;;;21.77;22.69
58239;BME280;44037;55.638;37.356;2023-04-24T10:16:43;99077.56;;;21.90;22.78
58239;BME280;44037;55.638;37.356;2023-04-24T10:19:13;99073.22;;;22.08;22.57
58239;BME280;44037;55.638;37.356;2023-04-24T10:21:42;99070.41;;;22.30;22.47
58239;BME280;44037;55.638;37.356;2023-04-24T10:24:12;99062.25;;;22.54;21.97
58239;BME280;44037;55.638;37.356;2023-04-24T10:26:41;99067.56;;;22.72;22.41
58239;BME280;44037;55.638;37.356;2023-04-24T10:29:10;99070.56;;;22.81;21.87
58239;BME280;44037;55.638;37.356;2023-04-24T10:31:40;99065.97;;;23.02;22.33
58239;BME280;44037;55.638;37.356;2023-04-24T10:34:09;99066.06;;;23.19;21.67
58239;BME280;44037;55.638;37.356;2023-04-24T10:36:40;99063.78;;;23.28;22.23
58239;BME280;44037;55.638;37.356;2023-04-24T10:39:10;99062.47;;;23.37;21.81
58239;BME280;44037;55.638;37.356;2023-04-24T10:41:38;99063.66;;;23.47;22.00
58239;BME280;44037;55.638;37.356;2023-04-24T10:44:06;99056.88;;;23.43;20.81
58239;BME280;44037;55.638;37.356;2023-04-24T10:46:34;99046.94;;;23.13;21.36
58239;BME280;44037;55.638;37.356;2023-04-24T10:49:05;99059.94;;;22.83;21.53
58239;BME280;44037;55.638;37.356;2023-04-24T10:51:48;99051.47;;;22.41;21.94
58239;BME280;44037;55.638;37.356;2023-04-24T10:54:23;99047.63;;;22.10;22.34
58239;BME280;44037;55.638;37.356;2023-04-24T10:56:51;99058.53;;;21.83;22.71
58239;BME280;44037;55.638;37.356;2023-04-24T10:59:25;99056.06;;;21.61;23.58
58239;BME280;44037;55.638;37.356;2023-04-24T11:01:53;99062.97;;;21.43;22.95
58239;BME280;44037;55.638;37.356;2023-04-24T11:04:31;99047.31;;;21.40;23.16
58239;BME280;44037;55.638;37.356;2023-04-24T11:06:59;99049.09;;;21.58;22.34
58239;BME280;44037;55.638;37.356;2023-04-24T11:09:27;99043.88;;;21.77;22.90
58239;BME280;44037;55.638;37.356;2023-04-24T11:12:03;99029.47;;;22.04;22.45
58239;BME280;44037;55.638;37.356;2023-04-24T11:15:00;99038.97;;;22.25;22.31
58239;BME280;44037;55.638;37.356;2023-04-24T11:17:35;99023.69;;;22.51;21.67
58239;BME280;44037;55.638;37.356;2023-04-24T11:20:06;99028.00;;;22.70;21.53
58239;BME280;44037;55.638;37.356;2023-04-24T11:22:36;99028.94;;;22.86;21.78
58239;BME280;44037;55.638;37.356;2023-04-24T11:25:06;99028.75;;;23.07;21.75
58239;BME280;44037;55.638;37.356;2023-04-24T11:27:40;99018.19;;;23.25;21.74
58239;BME280;44037;55.638;37.356;2023-04-24T11:30:08;99015.25;;;23.31;21.29
58239;BME280;44037;55.638;37.356;2023-04-24T11:32:37;99017.69;;;23.34;21.79
58239;BME280;44037;55.638;37.356;2023-04-24T11:35:13;99017.69;;;23.34;21.31
58239;BME280;44037;55.638;37.356;2023-04-24T11:37:42;99016.22;;;23.28;21.32
58239;BME280;44037;55.638;37.356;2023-04-24T11:40:12;99012.50;;;23.15;21.04
58239;BME280;44037;55.638;37.356;2023-04-24T11:42:42;99011.78;;;22.95;20.59
58239;BME280;44037;55.638;37.356;2023-04-24T11:45:11;99009.38;;;22.73;21.15
58239;BME280;44037;55.638;37.356;2023-04-24T11:47:39;99001.47;;;22.55;21.85
58239;BME280;44037;55.638;37.356;2023-04-24T11:50:10;99001.44;;;22.38;21.59
58239;BME280;44037;55.638;37.356;2023-04-24T11:52:39;98997.84;;;22.21;21.79
58239;BME280;44037;55.638;37.356;2023-04-24T11:55:07;98994.09;;;22.08;21.86
58239;BME280;44037;55.638;37.356;2023-04-24T11:57:35;98988.53;;;22.14;21.72
58239;BME280;44037;55.638;37.356;2023-04-24T12:00:03;98986.34;;;22.22;21.71
58239;BME280;44037;55.638;37.356;2023-04-24T12:02:32;98989.47;;;22.31;21.11
58239;BME280;44037;55.638;37.356;2023-04-24T12:04:59;98982.31;;;22.33;21.09
58239;BME280;44037;55.638;37.356;2023-04-24T12:07:27;98980.47;;;22.35;23.06
58239;BME280;44037;55.638;37.356;2023-04-24T12:09:57;98979.88;;;22.47;22.83
58239;BME280;44037;55.638;37.356;2023-04-24T12:12:26;98977.56;;;22.41;21.80
58239;BME280;44037;55.638;37.356;2023-04-24T12:14:54;98976.91;;;22.36;21.31
58239;BME280;44037;55.638;37.356;2023-04-24T12:17:26;98970.75;;;22.18;22.00
58239;BME280;44037;55.638;37.356;2023-04-24T12:19:57;98980.28;;;22.03;22.34
58239;BME280;44037;55.638;37.356;2023-04-24T12:22:27;98975.88;;;21.84;22.54
58239;BME280;44037;55.638;37.356;2023-04-24T12:24:58;98980.34;;;21.65;22.31
58239;BME280;44037;55.638;37.356;2023-04-24T12:27:26;98975.84;;;21.47;22.24
58239;BME280;44037;55.638;37.356;2023-04-24T12:29:55;98972.53;;;21.23;21.81
58239;BME280;44037;55.638;37.356;2023-04-24T12:32:23;98969.03;;;21.04;22.38
58239;BME280;44037;55.638;37.356;2023-04-24T12:34:51;98962.97;;;21.01;21.56
58239;BME280;44037;55.638;37.356;2023-04-24T12:37:18;98960.47;;;20.98;22.52
58239;BME280;44037;55.638;37.356;2023-04-24T12:40:00;98958.91;;;21.13;23.34
58239;BME280;44037;55.638;37.356;2023-04-24T12:42:30;98966.28;;;21.45;22.85
58239;BME280;44037;55.638;37.356;2023-04-24T12:44:58;98951.97;;;21.70;21.69
58239;BME280;44037;55.638;37.356;2023-04-24T12:47:27;98947.41;;;21.92;22.30
58239;BME280;44037;55.638;37.356;2023-04-24T12:49:54;98954.09;;;22.17;21.39
58239;BME280;44037;55.638;37.356;2023-04-24T12:52:22;98958.59;;;22.33;22.65
58239;BME280;44037;55.638;37.356;2023-04-24T12:54:53;98941.06;;;22.49;21.14
58239;BME280;44037;55.638;37.356;2023-04-24T12:57:22;98944.50;;;22.51;20.78